createdAt,value
2022-11-16T00:04:27.963Z,1.8
2022-11-16T00:09:27.805Z,1.3
2022-11-16T00:14:28.037Z,1.3
2022-11-16T00:19:27.628Z,1.8
2022-11-16T00:24:27.285Z,1.8
2022-11-16T00:29:27.429Z,1.8
2022-11-16T00:34:27.885Z,1.8
2022-11-16T00:39:27.364Z,1.8
2022-11-16T00:44:27.677Z,1.8
2022-11-16T00:49:27.983Z,1.8
2022-11-16T00:54:27.645Z,1.8
2022-11-16T00:59:27.789Z,1.9
2022-11-16T01:04:27.777Z,1.9
2022-11-16T01:09:27.283Z,1.8
2022-11-16T01:14:27.644Z,1.8
2022-11-16T01:19:27.197Z,1.8
2022-11-16T01:24:27.461Z,1.8
2022-11-16T01:29:27.727Z,1.9
2022-11-16T01:34:27.215Z,1.9
2022-11-16T01:39:27.877Z,1.8
2022-11-16T01:44:28.054Z,1.8
2022-11-16T01:49:28.143Z,1.9
2022-11-16T01:54:27.415Z,1.9
2022-11-16T01:59:27.597Z,1.9
2022-11-16T02:04:28.218Z,1.9
2022-11-16T02:09:27.452Z,1.8
2022-11-16T02:14:28.150Z,1.8
2022-11-16T02:19:27.612Z,2.2
2022-11-16T02:24:27.832Z,2.2
2022-11-16T02:29:27.971Z,2.1
2022-11-16T02:34:27.488Z,2.1
2022-11-16T02:39:27.713Z,1.8
2022-11-16T02:44:28.094Z,1.8
2022-11-16T02:49:27.792Z,2.2
2022-11-16T02:54:27.471Z,2.2
2022-11-16T02:59:27.324Z,2.2
2022-11-16T03:04:27.877Z,2.2
2022-11-16T03:09:27.558Z,2.2
2022-11-16T03:14:27.352Z,2.2
2022-11-16T03:19:28.015Z,2.2
2022-11-16T03:24:27.957Z,2.2
2022-11-16T03:29:27.482Z,2.2
2022-11-16T03:34:28.150Z,2.2
2022-11-16T03:39:28.105Z,2.2
2022-11-16T03:44:27.921Z,2.2
2022-11-16T03:49:28.108Z,2.2
2022-11-16T09:29:28.262Z,2.2
2022-11-16T09:34:27.617Z,2.2
2022-11-16T09:39:32.658Z,1.9
2022-11-16T09:44:27.699Z,1.9
2022-11-16T09:49:28.299Z,2.2
2022-11-16T09:54:27.677Z,2.2
2022-11-16T09:59:28.048Z,2.2
2022-11-16T10:04:27.779Z,2.2
2022-11-16T10:09:27.715Z,2.2
2022-11-16T10:14:28.335Z,2.2
2022-11-16T10:19:27.888Z,2.7
2022-11-16T10:24:28.205Z,2.7
2022-11-16T10:29:27.534Z,2.9
2022-11-16T10:34:27.947Z,2.9
2022-11-16T10:39:28.429Z,2.4
2022-11-16T10:44:28.723Z,2.4
2022-11-16T10:49:28.483Z,2.2
2022-11-16T10:54:28.245Z,2.2
2022-11-16T10:59:27.868Z,1.8
2022-11-16T11:04:27.889Z,1.8
2022-11-16T11:09:28.281Z,2.7
2022-11-16T11:14:28.418Z,2.7
2022-11-16T11:19:27.620Z,1.9
2022-11-16T11:24:45.561Z,1.9
2022-11-16T11:29:27.866Z,2.2
2022-11-16T11:34:28.159Z,2.2
2022-11-16T11:39:28.683Z,1.9
2022-11-16T11:44:27.532Z,1.9
2022-11-16T11:49:34.160Z,2.4
2022-11-16T11:54:28.334Z,2.4
2022-11-16T11:59:27.687Z,1.8
2022-11-16T12:04:28.076Z,1.8
2022-11-16T12:09:28.227Z,1.8
2022-11-16T12:14:28.151Z,1.8
2022-11-16T12:19:28.420Z,1.8
2022-11-16T12:24:28.588Z,1.8
2022-11-16T12:29:27.705Z,2
2022-11-16T12:34:28.018Z,2
2022-11-16T12:39:28.507Z,2.1
2022-11-16T12:44:27.919Z,2.1
2022-11-16T12:49:28.320Z,1.9
2022-11-16T12:54:28.047Z,1.9
2022-11-16T12:59:28.301Z,1.8
2022-11-16T13:04:28.205Z,1.8
2022-11-16T13:09:28.791Z,2.6
2022-11-16T13:14:28.436Z,2.6
2022-11-16T13:19:28.454Z,1.8
2022-11-16T13:24:28.561Z,1.8
2022-11-16T13:29:27.834Z,2.2
2022-11-16T13:34:28.113Z,2.2
2022-11-16T13:39:28.646Z,2
2022-11-16T13:44:27.780Z,2
2022-11-16T13:49:28.087Z,2.2
2022-11-16T13:54:47.055Z,2.2
2022-11-16T13:59:28.584Z,2.2
2022-11-16T14:04:27.764Z,2.2
2022-11-16T14:09:33.292Z,1.4
2022-11-16T14:14:27.741Z,1.4
2022-11-16T14:19:28.110Z,2.2
2022-11-16T14:24:28.282Z,2.2
2022-11-16T14:29:28.639Z,2.9
2022-11-16T14:34:28.679Z,2.9
2022-11-16T14:39:28.429Z,2.7
2022-11-16T14:44:27.898Z,2.7
2022-11-16T14:49:28.043Z,2.1
2022-11-16T14:54:27.708Z,2.1
2022-11-16T14:59:28.368Z,2.5
2022-11-16T15:04:27.920Z,2.5
2022-11-16T15:09:29.383Z,2.6
2022-11-16T15:14:27.785Z,2.6
2022-11-16T15:19:28.515Z,1.8
2022-11-16T15:24:32.538Z,1.8
2022-11-16T15:29:27.983Z,1.8
2022-11-16T15:34:28.185Z,1.8
2022-11-16T15:39:27.796Z,1.8
2022-11-16T15:44:27.922Z,1.8
2022-11-16T15:49:28.285Z,1.8
2022-11-16T15:54:27.724Z,1.8
2022-11-16T15:59:27.940Z,1.8
2022-11-16T16:04:28.596Z,1.8
2022-11-16T16:09:28.079Z,1.8
